sensor_id;sensor_type;location;lat;lon;timestamp;P1;durP1;ratioP1;P2;durP2;ratioP2
15110;SDS011;7656;51.954;7.998;2023-04-07T00:02:08;8.30;;;6.20;;
15110;SDS011;7656;51.954;7.998;2023-04-07T00:06:30;10.33;;;6.97;;
15110;SDS011;7656;51.954;7.998;2023-04-07T00:10:51;8.90;;;7.10;;
15110;SDS011;7656;51.954;7.998;2023-04-07T00:15:12;9.40;;;6.03;;
15110;SDS011;7656;51.954;7.998;2023-04-07T00:19:33;12.13;;;7.10;;
15110;SDS011;7656;51.954;7.998;2023-04-07T00:23:55;9.17;;;6.93;;
15110;SDS011;7656;51.954;7.998;2023-04-07T00:28:16;9.83;;;6.77;;
15110;SDS011;7656;51.954;7.998;2023-04-07T00:32:37;9.57;;;7.00;;
15110;SDS011;7656;51.954;7.998;2023-04-07T00:36:58;9.70;;;6.20;;
15110;SDS011;7656;51.954;7.998;2023-04-07T00:41:19;8.50;;;6.50;;
15110;SDS011;7656;51.954;7.998;2023-04-07T00:45:41;8.60;;;6.20;;
15110;SDS011;7656;51.954;7.998;2023-04-07T00:50:03;9.10;;;6.83;;
15110;SDS011;7656;51.954;7.998;2023-04-07T00:54:24;9.50;;;7.10;;
15110;SDS011;7656;51.954;7.998;2023-04-07T00:58:45;10.27;;;6.77;;
15110;SDS011;7656;51.954;7.998;2023-04-07T01:03:12;8.53;;;6.67;;
15110;SDS011;7656;51.954;7.998;2023-04-07T01:07:58;10.80;;;6.53;;
15110;SDS011;7656;51.954;7.998;2023-04-07T01:17:11;8.30;;;5.83;;
15110;SDS011;7656;51.954;7.998;2023-04-07T01:21:36;9.30;;;5.60;;
15110;SDS011;7656;51.954;7.998;2023-04-07T01:30:38;7.67;;;5.73;;
15110;SDS011;7656;51.954;7.998;2023-04-07T01:35:04;7.00;;;5.03;;
15110;SDS011;7656;51.954;7.998;2023-04-07T01:39:29;9.73;;;6.43;;
15110;SDS011;7656;51.954;7.998;2023-04-07T01:43:51;7.93;;;5.33;;
15110;SDS011;7656;51.954;7.998;2023-04-07T01:48:14;8.03;;;5.10;;
15110;SDS011;7656;51.954;7.998;2023-04-07T01:52:36;6.40;;;5.30;;
15110;SDS011;7656;51.954;7.998;2023-04-07T01:56:58;7.07;;;4.93;;
15110;SDS011;7656;51.954;7.998;2023-04-07T02:01:20;7.07;;;5.00;;
15110;SDS011;7656;51.954;7.998;2023-04-07T02:05:41;7.37;;;5.30;;
15110;SDS011;7656;51.954;7.998;2023-04-07T02:10:05;8.23;;;5.60;;
15110;SDS011;7656;51.954;7.998;2023-04-07T02:14:32;7.90;;;5.60;;
15110;SDS011;7656;51.954;7.998;2023-04-07T02:19:00;8.97;;;6.00;;
15110;SDS011;7656;51.954;7.998;2023-04-07T02:23:22;9.40;;;6.20;;
15110;SDS011;7656;51.954;7.998;2023-04-07T02:27:44;8.93;;;6.50;;
15110;SDS011;7656;51.954;7.998;2023-04-07T02:32:05;10.03;;;7.03;;
15110;SDS011;7656;51.954;7.998;2023-04-07T02:36:26;8.63;;;5.57;;
15110;SDS011;7656;51.954;7.998;2023-04-07T02:40:48;7.93;;;5.83;;
15110;SDS011;7656;51.954;7.998;2023-04-07T02:45:09;9.83;;;6.67;;
15110;SDS011;7656;51.954;7.998;2023-04-07T02:49:31;7.17;;;5.63;;
15110;SDS011;7656;51.954;7.998;2023-04-07T02:53:53;8.90;;;6.23;;
15110;SDS011;7656;51.954;7.998;2023-04-07T02:58:14;7.73;;;5.70;;
15110;SDS011;7656;51.954;7.998;2023-04-07T03:02:38;6.47;;;5.27;;
15110;SDS011;7656;51.954;7.998;2023-04-07T03:06:59;7.60;;;5.40;;
15110;SDS011;7656;51.954;7.998;2023-04-07T03:11:22;7.27;;;5.33;;
15110;SDS011;7656;51.954;7.998;2023-04-07T03:15:44;6.90;;;5.50;;
15110;SDS011;7656;51.954;7.998;2023-04-07T03:20:07;6.73;;;5.07;;
15110;SDS011;7656;51.954;7.998;2023-04-07T03:24:31;6.57;;;4.90;;
15110;SDS011;7656;51.954;7.998;2023-04-07T03:28:53;6.57;;;5.43;;
15110;SDS011;7656;51.954;7.998;2023-04-07T03:33:14;7.33;;;5.57;;
15110;SDS011;7656;51.954;7.998;2023-04-07T03:37:36;7.70;;;5.90;;
15110;SDS011;7656;51.954;7.998;2023-04-07T03:41:59;7.03;;;5.17;;
15110;SDS011;7656;51.954;7.998;2023-04-07T03:46:24;8.27;;;5.30;;
15110;SDS011;7656;51.954;7.998;2023-04-07T03:50:47;7.23;;;5.63;;
15110;SDS011;7656;51.954;7.998;2023-04-07T03:55:11;9.63;;;6.17;;
15110;SDS011;7656;51.954;7.998;2023-04-07T03:59:34;5.73;;;4.93;;
15110;SDS011;7656;51.954;7.998;2023-04-07T04:03:58;7.80;;;5.17;;
15110;SDS011;7656;51.954;7.998;2023-04-07T04:08:24;7.60;;;6.17;;
15110;SDS011;7656;51.954;7.998;2023-04-07T04:12:47;8.53;;;5.20;;
15110;SDS011;7656;51.954;7.998;2023-04-07T04:17:08;7.03;;;4.33;;
15110;SDS011;7656;51.954;7.998;2023-04-07T04:21:35;7.77;;;5.63;;
15110;SDS011;7656;51.954;7.998;2023-04-07T04:25:56;6.93;;;5.13;;
15110;SDS011;7656;51.954;7.998;2023-04-07T04:30:20;7.13;;;5.03;;
15110;SDS011;7656;51.954;7.998;2023-04-07T04:34:48;6.83;;;4.90;;
15110;SDS011;7656;51.954;7.998;2023-04-07T04:39:11;5.80;;;4.60;;
15110;SDS011;7656;51.954;7.998;2023-04-07T04:43:32;5.90;;;4.80;;
15110;SDS011;7656;51.954;7.998;2023-04-07T04:47:54;6.13;;;4.77;;
15110;SDS011;7656;51.954;7.998;2023-04-07T04:52:16;7.83;;;4.50;;
15110;SDS011;7656;51.954;7.998;2023-04-07T04:56:40;6.40;;;4.10;;
15110;SDS011;7656;51.954;7.998;2023-04-07T05:01:02;4.80;;;4.30;;
15110;SDS011;7656;51.954;7.998;2023-04-07T05:05:46;6.17;;;5.00;;
15110;SDS011;7656;51.954;7.998;2023-04-07T05:10:10;8.10;;;5.23;;
15110;SDS011;7656;51.954;7.998;2023-04-07T05:14:37;6.47;;;4.57;;
15110;SDS011;7656;51.954;7.998;2023-04-07T05:19:01;6.20;;;4.53;;
15110;SDS011;7656;51.954;7.998;2023-04-07T05:23:24;5.77;;;4.73;;
15110;SDS011;7656;51.954;7.998;2023-04-07T05:27:46;5.77;;;5.07;;
15110;SDS011;7656;51.954;7.998;2023-04-07T05:32:09;8.07;;;5.13;;
15110;SDS011;7656;51.954;7.998;2023-04-07T05:36:32;7.73;;;5.40;;
15110;SDS011;7656;51.954;7.998;2023-04-07T05:40:54;7.17;;;5.47;;
15110;SDS011;7656;51.954;7.998;2023-04-07T05:45:23;7.50;;;5.10;;
15110;SDS011;7656;51.954;7.998;2023-04-07T05:49:44;7.27;;;5.27;;
15110;SDS011;7656;51.954;7.998;2023-04-07T05:54:07;7.67;;;5.60;;
15110;SDS011;7656;51.954;7.998;2023-04-07T05:58:28;7.30;;;5.53;;
15110;SDS011;7656;51.954;7.998;2023-04-07T06:02:50;8.13;;;5.20;;
15110;SDS011;7656;51.954;7.998;2023-04-07T06:07:13;7.57;;;5.43;;
15110;SDS011;7656;51.954;7.998;2023-04-07T06:11:36;5.80;;;4.50;;
15110;SDS011;7656;51.954;7.998;2023-04-07T06:15:57;7.70;;;5.33;;
15110;SDS011;7656;51.954;7.998;2023-04-07T06:20:19;7.23;;;4.90;;
15110;SDS011;7656;51.954;7.998;2023-04-07T06:24:42;6.20;;;5.13;;
15110;SDS011;7656;51.954;7.998;2023-04-07T06:29:03;6.43;;;4.57;;
15110;SDS011;7656;51.954;7.998;2023-04-07T06:33:24;6.03;;;4.87;;
15110;SDS011;7656;51.954;7.998;2023-04-07T06:37:45;7.40;;;4.73;;
15110;SDS011;7656;51.954;7.998;2023-04-07T06:42:06;6.47;;;5.30;;
15110;SDS011;7656;51.954;7.998;2023-04-07T06:46:32;5.87;;;4.60;;
15110;SDS011;7656;51.954;7.998;2023-04-07T06:50:53;6.47;;;4.60;;
15110;SDS011;7656;51.954;7.998;2023-04-07T06:55:14;7.30;;;4.60;;
15110;SDS011;7656;51.954;7.998;2023-04-07T06:59:36;7.00;;;5.20;;
15110;SDS011;7656;51.954;7.998;2023-04-07T07:03:58;6.33;;;4.53;;
15110;SDS011;7656;51.954;7.998;2023-04-07T07:08:22;6.57;;;4.50;;
15110;SDS011;7656;51.954;7.998;2023-04-07T07:12:44;6.63;;;4.90;;
15110;SDS011;7656;51.954;7.998;2023-04-07T07:17:05;7.27;;;5.27;;
15110;SDS011;7656;51.954;7.998;2023-04-07T07:21:26;9.37;;;5.27;;
15110;SDS011;7656;51.954;7.998;2023-04-07T07:25:47;6.97;;;4.70;;
15110;SDS011;7656;51.954;7.998;2023-04-07T07:30:08;6.40;;;4.50;;
15110;SDS011;7656;51.954;7.998;2023-04-07T07:34:31;6.47;;;4.53;;
15110;SDS011;7656;51.954;7.998;2023-04-07T07:38:52;5.60;;;4.20;;
15110;SDS011;7656;51.954;7.998;2023-04-07T07:43:13;6.80;;;4.20;;
15110;SDS011;7656;51.954;7.998;2023-04-07T07:47:34;5.80;;;4.57;;
15110;SDS011;7656;51.954;7.998;2023-04-07T07:51:57;5.40;;;4.17;;
15110;SDS011;7656;51.954;7.998;2023-04-07T07:56:19;6.90;;;4.47;;
15110;SDS011;7656;51.954;7.998;2023-04-07T08:00:40;6.47;;;4.77;;
15110;SDS011;7656;51.954;7.998;2023-04-07T08:05:02;5.73;;;4.53;;
15110;SDS011;7656;51.954;7.998;2023-04-07T08:09:23;5.57;;;4.37;;
15110;SDS011;7656;51.954;7.998;2023-04-07T08:13:44;7.33;;;5.10;;
15110;SDS011;7656;51.954;7.998;2023-04-07T08:18:05;5.27;;;4.47;;
15110;SDS011;7656;51.954;7.998;2023-04-07T08:22:27;7.73;;;5.23;;
15110;SDS011;7656;51.954;7.998;2023-04-07T08:26:48;6.30;;;4.67;;
15110;SDS011;7656;51.954;7.998;2023-04-07T08:31:09;6.70;;;4.60;;
15110;SDS011;7656;51.954;7.998;2023-04-07T08:35:30;7.57;;;4.77;;
15110;SDS011;7656;51.954;7.998;2023-04-07T08:39:51;4.40;;;4.00;;
15110;SDS011;7656;51.954;7.998;2023-04-07T08:44:12;4.83;;;4.10;;
15110;SDS011;7656;51.954;7.998;2023-04-07T08:48:35;6.40;;;4.40;;
15110;SDS011;7656;51.954;7.998;2023-04-07T08:52:59;5.90;;;4.03;;
15110;SDS011;7656;51.954;7.998;2023-04-07T08:57:23;3.90;;;3.03;;
15110;SDS011;7656;51.954;7.998;2023-04-07T09:01:44;4.97;;;3.73;;
15110;SDS011;7656;51.954;7.998;2023-04-07T09:06:08;4.93;;;3.50;;
15110;SDS011;7656;51.954;7.998;2023-04-07T09:10:30;5.07;;;3.27;;
15110;SDS011;7656;51.954;7.998;2023-04-07T09:14:52;3.50;;;3.00;;
15110;SDS011;7656;51.954;7.998;2023-04-07T09:19:13;3.33;;;2.60;;
15110;SDS011;7656;51.954;7.998;2023-04-07T09:23:35;3.40;;;3.00;;
15110;SDS011;7656;51.954;7.998;2023-04-07T09:27:59;3.47;;;2.70;;
15110;SDS011;7656;51.954;7.998;2023-04-07T09:32:35;3.77;;;2.80;;
15110;SDS011;7656;51.954;7.998;2023-04-07T09:36:58;3.43;;;2.10;;
15110;SDS011;7656;51.954;7.998;2023-04-07T09:41:19;2.57;;;2.10;;
15110;SDS011;7656;51.954;7.998;2023-04-07T09:45:41;2.37;;;2.17;;
15110;SDS011;7656;51.954;7.998;2023-04-07T09:50:03;3.07;;;2.77;;
15110;SDS011;7656;51.954;7.998;2023-04-07T09:54:33;2.77;;;2.30;;
15110;SDS011;7656;51.954;7.998;2023-04-07T09:58:58;2.83;;;2.47;;
15110;SDS011;7656;51.954;7.998;2023-04-07T10:03:20;3.13;;;2.67;;
15110;SDS011;7656;51.954;7.998;2023-04-07T10:07:42;3.60;;;2.33;;
15110;SDS011;7656;51.954;7.998;2023-04-07T10:12:03;2.73;;;2.40;;
15110;SDS011;7656;51.954;7.998;2023-04-07T10:16:26;3.07;;;2.60;;
15110;SDS011;7656;51.954;7.998;2023-04-07T10:20:48;1.77;;;1.67;;
15110;SDS011;7656;51.954;7.998;2023-04-07T10:25:11;2.40;;;2.10;;
15110;SDS011;7656;51.954;7.998;2023-04-07T10:29:37;2.63;;;2.33;;
15110;SDS011;7656;51.954;7.998;2023-04-07T10:34:04;2.80;;;2.17;;
15110;SDS011;7656;51.954;7.998;2023-04-07T10:38:25;2.70;;;2.00;;
15110;SDS011;7656;51.954;7.998;2023-04-07T10:42:46;2.10;;;1.90;;
15110;SDS011;7656;51.954;7.998;2023-04-07T10:47:07;2.27;;;2.00;;
15110;SDS011;7656;51.954;7.998;2023-04-07T10:51:28;2.43;;;2.23;;
15110;SDS011;7656;51.954;7.998;2023-04-07T10:55:53;2.87;;;2.60;;
15110;SDS011;7656;51.954;7.998;2023-04-07T11:00:16;4.73;;;2.83;;
15110;SDS011;7656;51.954;7.998;2023-04-07T11:04:38;2.10;;;1.90;;
15110;SDS011;7656;51.954;7.998;2023-04-07T11:09:05;2.13;;;1.93;;
15110;SDS011;7656;51.954;7.998;2023-04-07T11:13:41;3.43;;;2.33;;
15110;SDS011;7656;51.954;7.998;2023-04-07T11:18:17;2.33;;;2.13;;
15110;SDS011;7656;51.954;7.998;2023-04-07T11:22:39;2.03;;;1.80;;
15110;SDS011;7656;51.954;7.998;2023-04-07T11:27:01;2.73;;;2.10;;
15110;SDS011;7656;51.954;7.998;2023-04-07T11:31:26;2.83;;;2.53;;
15110;SDS011;7656;51.954;7.998;2023-04-07T11:35:50;2.20;;;2.00;;
15110;SDS011;7656;51.954;7.998;2023-04-07T11:40:30;2.70;;;2.30;;
15110;SDS011;7656;51.954;7.998;2023-04-07T11:44:56;2.37;;;2.13;;
15110;SDS011;7656;51.954;7.998;2023-04-07T11:49:17;2.73;;;2.30;;
15110;SDS011;7656;51.954;7.998;2023-04-07T11:53:38;2.57;;;1.97;;
15110;SDS011;7656;51.954;7.998;2023-04-07T11:58:06;2.37;;;2.17;;
15110;SDS011;7656;51.954;7.998;2023-04-07T12:02:34;2.80;;;2.33;;
15110;SDS011;7656;51.954;7.998;2023-04-07T12:07:06;2.07;;;1.90;;
15110;SDS011;7656;51.954;7.998;2023-04-07T12:11:28;1.77;;;1.67;;
15110;SDS011;7656;51.954;7.998;2023-04-07T12:15:49;2.30;;;2.00;;
15110;SDS011;7656;51.954;7.998;2023-04-07T12:20:11;1.60;;;1.50;;
15110;SDS011;7656;51.954;7.998;2023-04-07T12:24:33;2.30;;;1.67;;
15110;SDS011;7656;51.954;7.998;2023-04-07T12:28:54;2.90;;;1.80;;
15110;SDS011;7656;51.954;7.998;2023-04-07T12:33:18;1.90;;;1.80;;
15110;SDS011;7656;51.954;7.998;2023-04-07T12:37:39;1.97;;;1.77;;
15110;SDS011;7656;51.954;7.998;2023-04-07T12:42:00;1.60;;;1.50;;
15110;SDS011;7656;51.954;7.998;2023-04-07T12:46:21;1.60;;;1.50;;
15110;SDS011;7656;51.954;7.998;2023-04-07T12:50:42;2.23;;;1.67;;
15110;SDS011;7656;51.954;7.998;2023-04-07T12:55:03;1.97;;;1.63;;
15110;SDS011;7656;51.954;7.998;2023-04-07T12:59:25;1.87;;;1.77;;
15110;SDS011;7656;51.954;7.998;2023-04-07T13:03:46;1.77;;;1.60;;
15110;SDS011;7656;51.954;7.998;2023-04-07T13:08:07;1.67;;;1.57;;
15110;SDS011;7656;51.954;7.998;2023-04-07T13:12:29;2.30;;;1.93;;
15110;SDS011;7656;51.954;7.998;2023-04-07T13:16:50;2.97;;;1.83;;
15110;SDS011;7656;51.954;7.998;2023-04-07T13:21:11;1.53;;;1.43;;
15110;SDS011;7656;51.954;7.998;2023-04-07T13:25:32;1.63;;;1.47;;
15110;SDS011;7656;51.954;7.998;2023-04-07T13:29:53;1.13;;;1.13;;
15110;SDS011;7656;51.954;7.998;2023-04-07T13:34:14;1.57;;;1.47;;
15110;SDS011;7656;51.954;7.998;2023-04-07T13:38:36;1.30;;;1.20;;
15110;SDS011;7656;51.954;7.998;2023-04-07T13:42:57;1.50;;;1.40;;
15110;SDS011;7656;51.954;7.998;2023-04-07T13:47:19;1.63;;;1.50;;
15110;SDS011;7656;51.954;7.998;2023-04-07T13:51:41;1.77;;;1.50;;
15110;SDS011;7656;51.954;7.998;2023-04-07T13:56:02;1.63;;;1.53;;
15110;SDS011;7656;51.954;7.998;2023-04-07T14:00:25;1.40;;;1.30;;
15110;SDS011;7656;51.954;7.998;2023-04-07T14:04:46;1.47;;;1.37;;
15110;SDS011;7656;51.954;7.998;2023-04-07T14:09:07;2.20;;;1.30;;
15110;SDS011;7656;51.954;7.998;2023-04-07T14:13:28;1.23;;;1.13;;
15110;SDS011;7656;51.954;7.998;2023-04-07T14:17:49;1.33;;;1.07;;
15110;SDS011;7656;51.954;7.998;2023-04-07T14:22:12;1.10;;;1.00;;
15110;SDS011;7656;51.954;7.998;2023-04-07T14:26:34;0.83;;;0.83;;
15110;SDS011;7656;51.954;7.998;2023-04-07T14:30:55;0.60;;;0.60;;
15110;SDS011;7656;51.954;7.998;2023-04-07T14:35:16;0.63;;;0.63;;
15110;SDS011;7656;51.954;7.998;2023-04-07T14:39:37;1.00;;;0.87;;
15110;SDS011;7656;51.954;7.998;2023-04-07T14:43:58;0.80;;;0.80;;
15110;SDS011;7656;51.954;7.998;2023-04-07T14:48:19;1.33;;;1.23;;
15110;SDS011;7656;51.954;7.998;2023-04-07T14:52:41;1.20;;;1.10;;
15110;SDS011;7656;51.954;7.998;2023-04-07T14:57:03;1.40;;;1.30;;
15110;SDS011;7656;51.954;7.998;2023-04-07T15:01:25;1.30;;;1.20;;
15110;SDS011;7656;51.954;7.998;2023-04-07T15:05:46;1.50;;;1.40;;
15110;SDS011;7656;51.954;7.998;2023-04-07T15:10:07;1.40;;;1.30;;
15110;SDS011;7656;51.954;7.998;2023-04-07T15:14:29;2.13;;;1.90;;
15110;SDS011;7656;51.954;7.998;2023-04-07T15:18:50;1.70;;;1.53;;
15110;SDS011;7656;51.954;7.998;2023-04-07T15:23:11;1.57;;;1.47;;
15110;SDS011;7656;51.954;7.998;2023-04-07T15:27:34;1.90;;;1.80;;
15110;SDS011;7656;51.954;7.998;2023-04-07T15:31:55;2.17;;;1.60;;
15110;SDS011;7656;51.954;7.998;2023-04-07T15:36:16;2.13;;;1.80;;
15110;SDS011;7656;51.954;7.998;2023-04-07T15:40:37;1.70;;;1.60;;
15110;SDS011;7656;51.954;7.998;2023-04-07T15:45:00;1.70;;;1.60;;
15110;SDS011;7656;51.954;7.998;2023-04-07T15:49:21;1.80;;;1.70;;
15110;SDS011;7656;51.954;7.998;2023-04-07T15:53:42;2.10;;;1.93;;
15110;SDS011;7656;51.954;7.998;2023-04-07T15:58:03;1.90;;;1.80;;
15110;SDS011;7656;51.954;7.998;2023-04-07T16:02:24;1.70;;;1.60;;
15110;SDS011;7656;51.954;7.998;2023-04-07T16:06:46;1.60;;;1.50;;
15110;SDS011;7656;51.954;7.998;2023-04-07T16:11:07;2.33;;;1.60;;
15110;SDS011;7656;51.954;7.998;2023-04-07T16:15:28;1.87;;;1.50;;
15110;SDS011;7656;51.954;7.998;2023-04-07T16:19:49;2.20;;;1.80;;
15110;SDS011;7656;51.954;7.998;2023-04-07T16:24:10;1.57;;;1.47;;
15110;SDS011;7656;51.954;7.998;2023-04-07T16:28:31;1.50;;;1.40;;
15110;SDS011;7656;51.954;7.998;2023-04-07T16:32:52;1.67;;;1.50;;
15110;SDS011;7656;51.954;7.998;2023-04-07T16:37:13;2.33;;;1.70;;
15110;SDS011;7656;51.954;7.998;2023-04-07T16:41:35;1.90;;;1.70;;
15110;SDS011;7656;51.954;7.998;2023-04-07T16:45:56;1.57;;;1.47;;
15110;SDS011;7656;51.954;7.998;2023-04-07T16:50:19;2.00;;;1.80;;
15110;SDS011;7656;51.954;7.998;2023-04-07T16:54:40;1.70;;;1.60;;
15110;SDS011;7656;51.954;7.998;2023-04-07T16:59:01;1.80;;;1.70;;
15110;SDS011;7656;51.954;7.998;2023-04-07T17:03:23;1.90;;;1.80;;
15110;SDS011;7656;51.954;7.998;2023-04-07T17:07:44;1.60;;;1.50;;
15110;SDS011;7656;51.954;7.998;2023-04-07T17:12:05;2.10;;;1.90;;
15110;SDS011;7656;51.954;7.998;2023-04-07T17:16:26;1.80;;;1.63;;
15110;SDS011;7656;51.954;7.998;2023-04-07T17:20:47;2.27;;;1.93;;
15110;SDS011;7656;51.954;7.998;2023-04-07T17:25:08;1.83;;;1.60;;
15110;SDS011;7656;51.954;7.998;2023-04-07T17:29:30;3.47;;;2.13;;
15110;SDS011;7656;51.954;7.998;2023-04-07T17:33:53;2.50;;;2.30;;
15110;SDS011;7656;51.954;7.998;2023-04-07T17:38:14;3.57;;;2.43;;
15110;SDS011;7656;51.954;7.998;2023-04-07T17:42:35;2.47;;;2.27;;
15110;SDS011;7656;51.954;7.998;2023-04-07T17:46:58;2.50;;;2.23;;
15110;SDS011;7656;51.954;7.998;2023-04-07T17:51:21;3.97;;;3.20;;
15110;SDS011;7656;51.954;7.998;2023-04-07T17:55:43;2.73;;;2.07;;
15110;SDS011;7656;51.954;7.998;2023-04-07T18:00:05;3.03;;;2.07;;
15110;SDS011;7656;51.954;7.998;2023-04-07T18:04:33;3.00;;;2.70;;
15110;SDS011;7656;51.954;7.998;2023-04-07T18:08:59;3.33;;;2.63;;
15110;SDS011;7656;51.954;7.998;2023-04-07T18:13:20;16.37;;;10.83;;
15110;SDS011;7656;51.954;7.998;2023-04-07T18:17:42;18.73;;;10.90;;
15110;SDS011;7656;51.954;7.998;2023-04-07T18:22:03;16.77;;;9.43;;
15110;SDS011;7656;51.954;7.998;2023-04-07T18:26:24;5.80;;;4.50;;
15110;SDS011;7656;51.954;7.998;2023-04-07T18:30:45;3.20;;;2.90;;
15110;SDS011;7656;51.954;7.998;2023-04-07T18:35:07;3.50;;;2.73;;
15110;SDS011;7656;51.954;7.998;2023-04-07T18:39:28;3.00;;;2.57;;
15110;SDS011;7656;51.954;7.998;2023-04-07T18:43:49;2.83;;;2.50;;
15110;SDS011;7656;51.954;7.998;2023-04-07T18:48:13;3.50;;;2.67;;
15110;SDS011;7656;51.954;7.998;2023-04-07T18:52:35;4.00;;;3.33;;
15110;SDS011;7656;51.954;7.998;2023-04-07T18:56:56;4.63;;;3.17;;
15110;SDS011;7656;51.954;7.998;2023-04-07T19:01:17;4.33;;;3.70;;
15110;SDS011;7656;51.954;7.998;2023-04-07T19:05:39;4.23;;;3.33;;
15110;SDS011;7656;51.954;7.998;2023-04-07T19:10:00;3.53;;;2.77;;
15110;SDS011;7656;51.954;7.998;2023-04-07T19:14:23;3.73;;;3.20;;
15110;SDS011;7656;51.954;7.998;2023-04-07T19:18:44;3.40;;;3.10;;
15110;SDS011;7656;51.954;7.998;2023-04-07T19:23:05;5.17;;;3.10;;
15110;SDS011;7656;51.954;7.998;2023-04-07T19:27:27;3.70;;;3.37;;
15110;SDS011;7656;51.954;7.998;2023-04-07T19:31:49;4.67;;;3.97;;
15110;SDS011;7656;51.954;7.998;2023-04-07T19:36:12;7.77;;;5.83;;
15110;SDS011;7656;51.954;7.998;2023-04-07T19:40:34;5.27;;;3.90;;
15110;SDS011;7656;51.954;7.998;2023-04-07T19:44:55;5.07;;;4.40;;
15110;SDS011;7656;51.954;7.998;2023-04-07T19:49:19;16.97;;;8.87;;
15110;SDS011;7656;51.954;7.998;2023-04-07T19:53:41;8.50;;;6.23;;
15110;SDS011;7656;51.954;7.998;2023-04-07T19:58:02;9.53;;;5.37;;
15110;SDS011;7656;51.954;7.998;2023-04-07T20:02:23;7.10;;;5.33;;
15110;SDS011;7656;51.954;7.998;2023-04-07T20:06:44;6.53;;;5.93;;
15110;SDS011;7656;51.954;7.998;2023-04-07T20:11:05;9.00;;;6.30;;
15110;SDS011;7656;51.954;7.998;2023-04-07T20:15:32;7.77;;;5.60;;
15110;SDS011;7656;51.954;7.998;2023-04-07T20:19:53;8.67;;;6.60;;
15110;SDS011;7656;51.954;7.998;2023-04-07T20:24:15;8.83;;;6.00;;
15110;SDS011;7656;51.954;7.998;2023-04-07T20:28:38;8.10;;;6.03;;
15110;SDS011;7656;51.954;7.998;2023-04-07T20:32:59;7.20;;;5.63;;
15110;SDS011;7656;51.954;7.998;2023-04-07T20:37:20;7.93;;;6.77;;
15110;SDS011;7656;51.954;7.998;2023-04-07T20:41:42;8.07;;;5.90;;
15110;SDS011;7656;51.954;7.998;2023-04-07T20:46:04;8.47;;;5.90;;
15110;SDS011;7656;51.954;7.998;2023-04-07T20:50:26;7.80;;;6.37;;
15110;SDS011;7656;51.954;7.998;2023-04-07T20:54:47;7.53;;;6.30;;
15110;SDS011;7656;51.954;7.998;2023-04-07T20:59:08;7.93;;;6.00;;
15110;SDS011;7656;51.954;7.998;2023-04-07T21:03:30;7.03;;;6.13;;
15110;SDS011;7656;51.954;7.998;2023-04-07T21:07:51;8.33;;;6.23;;
15110;SDS011;7656;51.954;7.998;2023-04-07T21:12:12;7.73;;;6.00;;
15110;SDS011;7656;51.954;7.998;2023-04-07T21:16:33;9.30;;;6.53;;
15110;SDS011;7656;51.954;7.998;2023-04-07T21:20:55;10.43;;;7.37;;
15110;SDS011;7656;51.954;7.998;2023-04-07T21:25:18;8.53;;;6.63;;
15110;SDS011;7656;51.954;7.998;2023-04-07T21:29:39;8.70;;;6.40;;
15110;SDS011;7656;51.954;7.998;2023-04-07T21:34:01;9.33;;;7.03;;
15110;SDS011;7656;51.954;7.998;2023-04-07T21:38:23;10.03;;;7.33;;
15110;SDS011;7656;51.954;7.998;2023-04-07T21:42:44;8.60;;;6.50;;
15110;SDS011;7656;51.954;7.998;2023-04-07T21:47:06;14.53;;;9.07;;
15110;SDS011;7656;51.954;7.998;2023-04-07T21:51:27;14.80;;;10.60;;
15110;SDS011;7656;51.954;7.998;2023-04-07T21:55:48;18.37;;;12.23;;
15110;SDS011;7656;51.954;7.998;2023-04-07T22:00:09;16.13;;;11.50;;
15110;SDS011;7656;51.954;7.998;2023-04-07T22:04:38;11.43;;;7.80;;
15110;SDS011;7656;51.954;7.998;2023-04-07T22:08:59;10.80;;;7.50;;
15110;SDS011;7656;51.954;7.998;2023-04-07T22:13:20;7.40;;;6.27;;
15110;SDS011;7656;51.954;7.998;2023-04-07T22:17:41;9.07;;;6.90;;
15110;SDS011;7656;51.954;7.998;2023-04-07T22:22:02;9.23;;;6.43;;
15110;SDS011;7656;51.954;7.998;2023-04-07T22:26:23;8.63;;;5.83;;
15110;SDS011;7656;51.954;7.998;2023-04-07T22:30:44;8.63;;;6.10;;
15110;SDS011;7656;51.954;7.998;2023-04-07T22:35:05;9.33;;;6.47;;
15110;SDS011;7656;51.954;7.998;2023-04-07T22:39:27;7.57;;;5.63;;
15110;SDS011;7656;51.954;7.998;2023-04-07T22:43:48;7.43;;;5.70;;
15110;SDS011;7656;51.954;7.998;2023-04-07T22:48:09;7.00;;;6.00;;
15110;SDS011;7656;51.954;7.998;2023-04-07T22:52:30;7.43;;;5.83;;
15110;SDS011;7656;51.954;7.998;2023-04-07T22:56:51;7.37;;;6.60;;
15110;SDS011;7656;51.954;7.998;2023-04-07T23:01:12;7.93;;;6.27;;
15110;SDS011;7656;51.954;7.998;2023-04-07T23:05:33;7.73;;;6.30;;
15110;SDS011;7656;51.954;7.998;2023-04-07T23:09:54;11.60;;;7.50;;
15110;SDS011;7656;51.954;7.998;2023-04-07T23:14:15;12.63;;;7.90;;
15110;SDS011;7656;51.954;7.998;2023-04-07T23:18:36;10.23;;;7.77;;
15110;SDS011;7656;51.954;7.998;2023-04-07T23:22:57;23.27;;;13.40;;
15110;SDS011;7656;51.954;7.998;2023-04-07T23:27:18;16.60;;;9.83;;
15110;SDS011;7656;51.954;7.998;2023-04-07T23:31:39;14.87;;;9.07;;
15110;SDS011;7656;51.954;7.998;2023-04-07T23:36:01;10.23;;;7.83;;
15110;SDS011;7656;51.954;7.998;2023-04-07T23:40:22;8.03;;;6.53;;
15110;SDS011;7656;51.954;7.998;2023-04-07T23:44:43;10.23;;;6.53;;
15110;SDS011;7656;51.954;7.998;2023-04-07T23:49:04;10.47;;;6.60;;
15110;SDS011;7656;51.954;7.998;2023-04-07T23:53:25;8.80;;;5.90;;
15110;SDS011;7656;51.954;7.998;2023-04-07T23:57:46;8.93;;;6.00;;
